createdAt,value
2022-12-24T00:01:22.596Z,0.99
2022-12-24T00:03:50.469Z,0.99
2022-12-24T00:06:21.009Z,0.98
2022-12-24T00:08:48.863Z,0.96
2022-12-24T00:11:18.340Z,0.95
2022-12-24T00:13:46.015Z,0.96
2022-12-24T00:16:13.679Z,0.96
2022-12-24T00:18:45.977Z,0.95
2022-12-24T00:21:14.656Z,0.96
2022-12-24T00:23:42.868Z,0.94
2022-12-24T00:26:10.543Z,0.91
2022-12-24T00:28:39.612Z,0.92
2022-12-24T00:31:12.283Z,0.93
2022-12-24T00:33:40.135Z,0.93
2022-12-24T00:36:09.481Z,0.92
2022-12-24T00:38:37.284Z,0.93
2022-12-24T00:41:24.329Z,0.92
2022-12-24T00:43:55.770Z,0.90
2022-12-24T00:46:24.286Z,0.90
2022-12-24T00:48:52.011Z,0.93
2022-12-24T00:51:20.616Z,0.95
2022-12-24T00:53:48.369Z,0.96
2022-12-24T00:56:16.240Z,0.98
2022-12-24T00:58:43.795Z,1.01
2022-12-24T01:01:13.337Z,1.03
2022-12-24T01:03:41.306Z,1.04
2022-12-24T01:06:10.669Z,1.09
2022-12-24T01:08:38.477Z,1.13
2022-12-24T01:11:07.336Z,1.19
2022-12-24T01:13:35.261Z,1.22
2022-12-24T01:16:03.337Z,1.26
2022-12-24T01:18:32.272Z,1.31
2022-12-24T01:21:01.498Z,1.37
2022-12-24T01:23:29.951Z,1.40
2022-12-24T01:26:01.429Z,1.45
2022-12-24T01:28:29.460Z,1.47
2022-12-24T01:30:57.096Z,1.51
2022-12-24T01:33:24.769Z,1.55
2022-12-24T01:35:53.692Z,1.59
2022-12-24T01:38:21.239Z,1.62
2022-12-24T01:41:02.715Z,1.65
2022-12-24T01:43:32.738Z,1.68
2022-12-24T01:46:02.913Z,1.73
2022-12-24T01:48:36.805Z,1.75
2022-12-24T01:51:15.403Z,1.80
2022-12-24T01:53:46.187Z,1.84
2022-12-24T01:56:14.270Z,1.89
2022-12-24T01:58:47.172Z,1.91
2022-12-24T02:01:14.865Z,1.93
2022-12-24T02:03:42.640Z,1.94
2022-12-24T02:06:16.459Z,1.96
2022-12-24T02:08:44.235Z,1.98
2022-12-24T02:11:13.995Z,1.99
2022-12-24T02:13:43.318Z,1.98
2022-12-24T02:16:22.319Z,1.99
2022-12-24T02:18:58.183Z,1.98
2022-12-24T02:21:41.615Z,2.01
2022-12-24T02:24:49.120Z,2.04
2022-12-24T02:27:26.991Z,2.04
2022-12-24T02:30:09.503Z,2.04
2022-12-24T02:32:46.434Z,2.07
2022-12-24T02:35:20.183Z,2.08
2022-12-24T02:37:53.822Z,2.08
2022-12-24T02:40:26.335Z,2.07
2022-12-24T02:42:58.768Z,2.06
2022-12-24T02:45:31.839Z,2.04
2022-12-24T02:48:01.163Z,2.04
2022-12-24T02:50:29.516Z,2.04
2022-12-24T02:52:57.163Z,2.03
2022-12-24T02:55:32.848Z,2.03
2022-12-24T02:58:17.799Z,2.04
2022-12-24T03:00:56.445Z,2.04
2022-12-24T03:03:35.590Z,2.06
2022-12-24T03:06:14.981Z,2.06
2022-12-24T03:08:49.634Z,2.08
2022-12-24T03:11:19.660Z,2.08
2022-12-24T03:13:48.945Z,2.09
2022-12-24T03:16:22.725Z,2.10
2022-12-24T03:18:52.029Z,2.12
2022-12-24T03:21:25.081Z,2.13
2022-12-24T03:23:52.847Z,2.15
2022-12-24T03:26:21.388Z,2.18
2022-12-24T03:28:49.969Z,2.18
2022-12-24T03:31:19.841Z,2.21
2022-12-24T03:33:48.622Z,2.23
2022-12-24T03:36:16.623Z,2.25
2022-12-24T03:38:44.245Z,2.27
2022-12-24T03:41:11.828Z,2.29
2022-12-24T03:43:39.404Z,2.30
2022-12-24T03:46:08.727Z,2.34
2022-12-24T03:48:37.666Z,2.33
2022-12-24T03:51:06.023Z,2.36
2022-12-24T03:53:33.595Z,2.37
2022-12-24T03:56:01.181Z,2.38
2022-12-24T03:58:28.779Z,2.41
2022-12-24T04:00:56.407Z,2.42
2022-12-24T04:03:24.039Z,2.43
2022-12-24T04:06:02.950Z,2.46
2022-12-24T04:08:30.491Z,2.45
2022-12-24T04:10:58.101Z,2.46
2022-12-24T04:13:26.031Z,2.47
2022-12-24T04:15:59.147Z,2.49
2022-12-24T04:18:26.776Z,2.50
2022-12-24T04:20:54.688Z,2.48
2022-12-24T04:23:23.722Z,2.47
2022-12-24T04:25:51.796Z,2.47
2022-12-24T04:28:19.714Z,2.49
2022-12-24T04:30:47.311Z,2.45
2022-12-24T04:33:14.850Z,2.48
2022-12-24T04:35:42.957Z,2.48
2022-12-24T04:38:11.207Z,2.48
2022-12-24T04:40:40.099Z,2.50
2022-12-24T04:43:07.688Z,2.51
2022-12-24T04:45:35.338Z,2.51
2022-12-24T04:48:02.933Z,2.52
2022-12-24T04:50:30.491Z,2.53
2022-12-24T04:52:58.080Z,2.54
2022-12-24T04:55:25.667Z,2.56
2022-12-24T04:57:54.537Z,2.56
2022-12-24T05:00:22.377Z,2.59
2022-12-24T05:02:50.100Z,2.60
2022-12-24T05:05:17.988Z,2.64
2022-12-24T05:07:45.577Z,2.67
2022-12-24T05:10:13.184Z,2.68
2022-12-24T05:12:40.767Z,2.72
2022-12-24T05:15:10.352Z,2.74
2022-12-24T05:17:37.938Z,2.77
2022-12-24T05:20:06.477Z,2.82
2022-12-24T05:22:51.719Z,2.84
2022-12-24T05:25:37.059Z,2.85
2022-12-24T05:28:04.775Z,2.88
2022-12-24T05:30:33.990Z,2.91
2022-12-24T05:33:01.565Z,2.92
2022-12-24T05:35:29.212Z,2.94
2022-12-24T05:37:59.089Z,2.96
2022-12-24T05:40:26.816Z,2.99
2022-12-24T05:42:54.409Z,3.01
2022-12-24T05:45:21.940Z,3.02
2022-12-24T05:47:50.851Z,3.05
2022-12-24T05:50:18.561Z,3.07
2022-12-24T05:52:46.119Z,3.07
2022-12-24T05:55:13.687Z,3.06
2022-12-24T05:57:41.717Z,3.06
2022-12-24T06:00:10.673Z,3.06
2022-12-24T06:02:38.467Z,3.08
2022-12-24T06:05:07.836Z,3.11
2022-12-24T06:07:35.901Z,3.10
2022-12-24T06:10:03.662Z,3.11
2022-12-24T06:12:31.256Z,3.11
2022-12-24T06:14:58.792Z,3.12
2022-12-24T06:17:26.425Z,3.12
2022-12-24T06:19:54.011Z,3.12
2022-12-24T06:22:22.926Z,3.12
2022-12-24T06:24:50.539Z,3.09
2022-12-24T06:27:18.131Z,3.10
2022-12-24T06:29:46.256Z,3.11
2022-12-24T06:32:13.976Z,3.13
2022-12-24T06:34:41.540Z,3.12
2022-12-24T06:37:16.342Z,3.13
2022-12-24T06:39:45.931Z,3.13
2022-12-24T06:42:13.531Z,3.13
2022-12-24T06:44:41.214Z,3.15
2022-12-24T06:47:08.839Z,3.14
2022-12-24T06:49:36.447Z,3.15
2022-12-24T06:52:04.130Z,3.15
2022-12-24T06:54:31.762Z,3.16
2022-12-24T06:57:00.724Z,3.16
2022-12-24T06:59:28.295Z,3.15
2022-12-24T07:01:55.998Z,3.14
2022-12-24T07:04:23.743Z,3.12
2022-12-24T07:06:51.334Z,3.13
2022-12-24T07:09:19.240Z,3.13
2022-12-24T07:11:46.816Z,3.12
2022-12-24T07:14:15.731Z,3.14
2022-12-24T07:16:43.472Z,3.15
2022-12-24T07:19:11.266Z,3.13
2022-12-24T07:21:38.925Z,3.11
2022-12-24T07:24:07.058Z,3.10
2022-12-24T07:26:34.671Z,3.11
2022-12-24T07:29:02.446Z,3.08
2022-12-24T07:31:31.499Z,3.08
2022-12-24T07:33:59.179Z,3.09
2022-12-24T07:36:28.216Z,3.06
2022-12-24T07:38:56.745Z,3.04
2022-12-24T07:41:24.309Z,3.00
2022-12-24T07:43:51.906Z,2.96
2022-12-24T07:46:19.579Z,2.92
2022-12-24T07:48:48.604Z,2.89
2022-12-24T07:51:16.272Z,2.90
2022-12-24T07:53:47.677Z,2.90
2022-12-24T07:56:16.206Z,2.94
2022-12-24T07:58:44.107Z,2.95
2022-12-24T08:01:12.153Z,2.94
2022-12-24T08:03:40.053Z,2.95
2022-12-24T08:06:09.747Z,2.96
2022-12-24T08:08:37.691Z,2.96
2022-12-24T08:11:07.922Z,3.01
2022-12-24T08:13:35.793Z,2.97
2022-12-24T08:16:03.467Z,2.98
2022-12-24T08:18:31.205Z,2.97
2022-12-24T08:20:58.887Z,2.95
2022-12-24T08:23:27.857Z,2.96
2022-12-24T08:25:55.521Z,2.94
2022-12-24T08:28:23.157Z,2.94
2022-12-24T08:30:51.959Z,2.95
2022-12-24T08:33:20.327Z,2.94
2022-12-24T08:35:49.929Z,2.94
2022-12-24T08:38:18.275Z,2.96
2022-12-24T08:40:49.892Z,3.00
2022-12-24T08:43:18.434Z,2.99
2022-12-24T08:45:46.528Z,2.98
2022-12-24T08:48:14.230Z,3.00
2022-12-24T08:50:42.852Z,2.99
2022-12-24T08:53:11.249Z,3.02
2022-12-24T08:55:39.552Z,2.99
2022-12-24T08:58:08.579Z,3.05
2022-12-24T09:00:36.275Z,3.06
2022-12-24T09:03:04.056Z,3.04
2022-12-24T09:05:31.740Z,3.07
2022-12-24T09:07:59.531Z,3.11
2022-12-24T09:10:27.466Z,3.14
2022-12-24T09:12:54.998Z,3.15
2022-12-24T09:15:23.908Z,3.19
2022-12-24T09:17:51.544Z,3.22
2022-12-24T09:20:19.395Z,3.24
2022-12-24T09:22:47.054Z,3.30
2022-12-24T09:25:14.825Z,3.34
2022-12-24T09:27:42.526Z,3.41
2022-12-24T09:30:11.442Z,3.40
2022-12-24T09:32:40.654Z,3.43
2022-12-24T09:35:08.830Z,3.46
2022-12-24T09:37:36.914Z,3.48
2022-12-24T09:40:05.118Z,3.53
2022-12-24T09:42:44.519Z,3.61
2022-12-24T09:45:20.705Z,3.59
2022-12-24T09:47:53.851Z,3.63
2022-12-24T09:50:34.910Z,3.68
2022-12-24T09:53:06.184Z,3.71
2022-12-24T09:55:38.157Z,3.78
2022-12-24T09:58:11.651Z,3.79
2022-12-24T10:00:43.182Z,3.79
2022-12-24T10:03:17.464Z,3.82
2022-12-24T10:05:51.003Z,3.87
2022-12-24T10:08:28.336Z,3.86
2022-12-24T10:11:00.539Z,3.85
2022-12-24T10:13:41.496Z,3.84
2022-12-24T10:16:19.089Z,3.89
2022-12-24T10:18:57.003Z,3.99
2022-12-24T10:21:33.606Z,4.04
2022-12-24T10:24:07.997Z,4.10
2022-12-24T10:26:45.120Z,4.14
2022-12-24T10:29:19.054Z,4.17
2022-12-24T10:31:54.571Z,4.18
2022-12-24T10:34:25.650Z,4.19
2022-12-24T10:36:53.467Z,4.16
2022-12-24T10:39:24.200Z,4.22
2022-12-24T10:41:55.199Z,4.29
2022-12-24T10:44:26.016Z,4.34
2022-12-24T10:46:53.612Z,4.36
2022-12-24T10:49:29.267Z,4.36
2022-12-24T10:52:01.350Z,4.43
2022-12-24T10:54:34.345Z,4.44
2022-12-24T10:57:03.375Z,4.41
2022-12-24T10:59:33.285Z,4.39
2022-12-24T11:02:02.355Z,4.40
2022-12-24T11:04:33.401Z,4.34
2022-12-24T11:07:03.143Z,4.38
2022-12-24T11:09:33.328Z,4.43
2022-12-24T11:12:09.032Z,4.45
2022-12-24T11:14:39.765Z,4.47
2022-12-24T11:17:07.547Z,4.49
2022-12-24T11:19:40.078Z,4.47
2022-12-24T11:22:18.917Z,4.42
2022-12-24T11:24:50.305Z,4.43
2022-12-24T11:27:44.194Z,4.43
2022-12-24T11:30:20.440Z,4.40
2022-12-24T11:32:49.568Z,4.43
2022-12-24T11:35:21.644Z,4.47
2022-12-24T11:37:49.708Z,4.50
2022-12-24T11:40:22.565Z,4.55
2022-12-24T11:42:53.181Z,4.65
2022-12-24T11:45:25.864Z,4.77
2022-12-24T11:47:54.655Z,4.83
2022-12-24T11:50:27.222Z,4.83
2022-12-24T11:53:03.603Z,4.90
2022-12-24T11:55:41.070Z,4.95
2022-12-24T11:58:20.658Z,4.99
2022-12-24T12:00:51.344Z,4.96
2022-12-24T12:03:28.807Z,4.90
2022-12-24T12:06:01.581Z,4.85
2022-12-24T12:08:31.241Z,4.79
2022-12-24T12:11:00.029Z,4.65
2022-12-24T12:13:33.341Z,4.61
2022-12-24T12:16:17.641Z,4.58
2022-12-24T12:18:52.162Z,4.54
2022-12-24T12:21:25.782Z,4.57
2022-12-24T12:23:58.561Z,4.53
2022-12-24T12:26:28.765Z,4.53
2022-12-24T12:29:00.134Z,4.52
2022-12-24T12:31:34.368Z,4.50
2022-12-24T12:34:07.215Z,4.51
2022-12-24T12:36:43.357Z,4.50
2022-12-24T12:39:12.287Z,4.51
2022-12-24T12:41:51.682Z,4.51
2022-12-24T12:44:42.369Z,4.53
2022-12-24T12:47:32.348Z,4.54
2022-12-24T12:50:10.256Z,4.54
2022-12-24T12:52:55.168Z,4.53
2022-12-24T12:55:37.943Z,4.48
2022-12-24T12:58:11.328Z,4.46
2022-12-24T13:00:45.238Z,4.50
2022-12-24T13:03:41.616Z,4.54
2022-12-24T13:06:25.583Z,4.54
2022-12-24T13:09:13.643Z,4.49
2022-12-24T13:11:53.328Z,4.52
2022-12-24T13:14:41.519Z,4.50
2022-12-24T13:17:34.304Z,4.57
2022-12-24T13:20:25.626Z,4.65
2022-12-24T13:22:59.095Z,4.63
2022-12-24T13:25:38.510Z,4.65
2022-12-24T13:28:37.119Z,4.64
2022-12-24T13:31:29.921Z,4.66
2022-12-24T13:34:19.607Z,4.59
2022-12-24T13:37:20.874Z,4.62
2022-12-24T13:40:16.596Z,4.63
2022-12-24T13:42:53.061Z,4.62
2022-12-24T13:45:44.541Z,4.58
2022-12-24T13:48:26.851Z,4.62
2022-12-24T13:50:56.955Z,4.69
2022-12-24T13:53:29.809Z,4.67
2022-12-24T13:56:00.456Z,4.69
2022-12-24T13:58:29.664Z,4.69
2022-12-24T14:01:00.224Z,4.67
2022-12-24T14:03:33.495Z,4.66
2022-12-24T14:06:06.353Z,4.61
2022-12-24T14:08:39.829Z,4.59
2022-12-24T14:11:11.476Z,4.57
2022-12-24T14:14:12.690Z,4.54
2022-12-24T14:16:47.579Z,4.51
2022-12-24T14:19:17.916Z,4.50
2022-12-24T14:21:53.984Z,4.53
2022-12-24T14:24:26.269Z,4.54
2022-12-24T14:26:57.948Z,4.52
2022-12-24T14:29:31.074Z,4.52
2022-12-24T14:32:04.023Z,4.51
2022-12-24T14:34:31.924Z,4.54
2022-12-24T14:37:04.508Z,4.54
2022-12-24T14:39:35.116Z,4.55
2022-12-24T14:42:11.619Z,4.56
2022-12-24T14:44:47.260Z,4.46
2022-12-24T14:47:26.712Z,4.48
2022-12-24T14:50:05.875Z,4.46
2022-12-24T14:53:05.629Z,4.47
2022-12-24T14:55:31.287Z,4.45
2022-12-24T14:58:25.231Z,4.44
2022-12-24T15:00:57.213Z,4.42
2022-12-24T15:03:27.075Z,4.43
2022-12-24T15:05:57.595Z,4.43
2022-12-24T15:08:30.531Z,4.45
2022-12-24T15:11:02.645Z,4.45
2022-12-24T15:13:36.658Z,4.42
2022-12-24T15:16:09.034Z,4.44
2022-12-24T15:18:39.246Z,4.40
2022-12-24T15:21:15.555Z,4.42
2022-12-24T15:23:48.440Z,4.42
2022-12-24T15:26:21.930Z,4.43
2022-12-24T15:28:49.925Z,4.42
2022-12-24T15:31:21.171Z,4.43
2022-12-24T15:33:50.400Z,4.44
2022-12-24T15:36:25.038Z,4.45
2022-12-24T15:38:55.224Z,4.46
2022-12-24T15:41:25.115Z,4.45
2022-12-24T15:43:55.524Z,4.46
2022-12-24T15:46:27.238Z,4.47
2022-12-24T15:48:57.021Z,4.46
2022-12-24T15:51:27.493Z,4.48
2022-12-24T15:54:01.575Z,4.50
2022-12-24T15:56:33.204Z,4.51
2022-12-24T15:59:31.094Z,4.53
2022-12-24T16:02:27.332Z,4.54
2022-12-24T16:04:55.140Z,4.55
2022-12-24T16:07:47.122Z,4.52
2022-12-24T16:10:25.150Z,4.54
2022-12-24T16:12:53.131Z,4.52
2022-12-24T16:15:21.308Z,4.51
2022-12-24T16:17:52.983Z,4.51
2022-12-24T16:20:23.077Z,4.53
2022-12-24T16:22:51.480Z,4.54
2022-12-24T16:25:27.240Z,4.55
2022-12-24T16:27:59.806Z,4.54
2022-12-24T16:30:27.902Z,4.55
2022-12-24T16:32:56.956Z,4.52
2022-12-24T16:35:28.098Z,4.53
2022-12-24T16:37:56.160Z,4.54
2022-12-24T16:40:27.630Z,4.52
2022-12-24T16:43:14.556Z,4.54
2022-12-24T16:45:42.792Z,4.55
2022-12-24T16:48:20.592Z,4.60
2022-12-24T16:50:48.252Z,4.60
2022-12-24T16:53:17.804Z,4.63
2022-12-24T16:55:47.513Z,4.64
2022-12-24T16:58:17.191Z,4.67
2022-12-24T17:00:45.609Z,4.70
2022-12-24T17:03:15.120Z,4.71
2022-12-24T17:05:44.387Z,4.73
2022-12-24T17:08:13.161Z,4.75
2022-12-24T17:10:41.232Z,4.76
2022-12-24T17:13:08.839Z,4.76
2022-12-24T17:15:36.420Z,4.77
2022-12-24T17:18:04.234Z,4.77
2022-12-24T17:20:33.140Z,4.81
2022-12-24T17:23:01.490Z,4.82
2022-12-24T17:25:29.051Z,4.82
2022-12-24T17:27:56.590Z,4.85
2022-12-24T17:30:24.151Z,4.84
2022-12-24T17:32:52.079Z,4.86
2022-12-24T17:35:19.676Z,4.87
2022-12-24T17:37:48.603Z,4.89
2022-12-24T17:40:16.506Z,4.89
2022-12-24T17:42:44.105Z,4.88
2022-12-24T17:45:12.032Z,4.88
2022-12-24T17:47:39.600Z,4.88
2022-12-24T17:50:08.354Z,4.89
2022-12-24T17:52:35.928Z,4.90
2022-12-24T17:55:05.692Z,4.90
2022-12-24T17:57:33.291Z,4.91
2022-12-24T18:00:00.862Z,4.94
2022-12-24T18:02:28.666Z,4.96
2022-12-24T18:04:56.333Z,4.98
2022-12-24T18:07:23.932Z,5.02
2022-12-24T18:09:51.490Z,5.06
2022-12-24T18:12:20.472Z,5.10
2022-12-24T18:14:47.999Z,5.14
2022-12-24T18:17:15.571Z,5.19
2022-12-24T18:19:43.211Z,5.24
2022-12-24T18:22:10.796Z,5.28
2022-12-24T18:24:38.374Z,5.33
2022-12-24T18:27:05.982Z,5.36
2022-12-24T18:29:35.211Z,5.39
2022-12-24T18:32:02.769Z,5.42
2022-12-24T18:34:30.360Z,5.46
2022-12-24T18:36:58.245Z,5.48
2022-12-24T18:39:26.351Z,5.51
2022-12-24T18:41:53.889Z,5.55
2022-12-24T18:44:25.348Z,5.56
2022-12-24T18:46:54.790Z,5.59
2022-12-24T18:49:22.448Z,5.61
2022-12-24T18:51:50.027Z,5.64
2022-12-24T18:54:17.612Z,5.66
2022-12-24T18:56:45.181Z,5.69
2022-12-24T18:59:12.808Z,5.70
2022-12-24T19:01:40.582Z,5.73
2022-12-24T19:04:10.341Z,5.73
2022-12-24T19:06:38.200Z,5.74
2022-12-24T19:09:05.787Z,5.76
2022-12-24T19:11:34.895Z,5.76
2022-12-24T19:14:03.719Z,5.78
2022-12-24T19:16:34.000Z,5.78
2022-12-24T19:19:02.992Z,5.81
2022-12-24T19:21:32.075Z,5.80
2022-12-24T19:23:59.667Z,5.82
2022-12-24T19:26:27.848Z,5.82
2022-12-24T19:28:55.804Z,5.83
2022-12-24T19:31:25.656Z,5.84
2022-12-24T19:33:55.451Z,5.85
2022-12-24T19:36:25.303Z,5.86
2022-12-24T19:38:54.647Z,5.88
2022-12-24T19:41:24.569Z,5.88
2022-12-24T19:43:53.566Z,5.90
2022-12-24T19:46:23.136Z,5.92
2022-12-24T19:48:52.499Z,5.94
2022-12-24T19:51:20.967Z,5.93
2022-12-24T19:53:49.052Z,5.94
2022-12-24T19:56:19.512Z,5.95
2022-12-24T19:58:47.742Z,5.96
2022-12-24T20:01:17.853Z,5.99
2022-12-24T20:03:45.836Z,6.00
2022-12-24T20:06:14.400Z,6.01
2022-12-24T20:08:42.192Z,6.00
2022-12-24T20:11:13.875Z,6.02
2022-12-24T20:13:43.154Z,6.02
2022-12-24T20:16:14.361Z,6.05
2022-12-24T20:18:42.039Z,6.02
2022-12-24T20:21:12.583Z,6.02
2022-12-24T20:23:41.002Z,6.01
2022-12-24T20:26:11.675Z,6.02
2022-12-24T20:28:39.897Z,6.02
2022-12-24T20:31:16.578Z,6.02
2022-12-24T20:33:45.736Z,6.02
2022-12-24T20:36:15.831Z,6.01
2022-12-24T20:38:43.515Z,5.99
2022-12-24T20:41:12.239Z,5.99
2022-12-24T20:43:47.343Z,6.00
2022-12-24T20:46:18.870Z,6.01
2022-12-24T20:48:47.120Z,5.99
2022-12-24T20:51:23.406Z,6.00
2022-12-24T20:53:52.534Z,5.99
2022-12-24T20:56:20.363Z,5.98
2022-12-24T20:58:47.970Z,5.98
2022-12-24T21:01:19.945Z,6.00
2022-12-24T21:03:47.788Z,6.01
2022-12-24T21:06:17.620Z,6.04
2022-12-24T21:08:45.571Z,6.06
2022-12-24T21:11:27.193Z,6.08
2022-12-24T21:13:54.907Z,6.11
2022-12-24T21:16:23.840Z,6.09
2022-12-24T21:18:51.801Z,6.11
2022-12-24T21:21:19.469Z,6.11
2022-12-24T21:23:47.095Z,6.13
2022-12-24T21:26:14.722Z,6.13
2022-12-24T21:28:42.581Z,6.14
2022-12-24T21:31:11.152Z,6.12
2022-12-24T21:33:40.235Z,6.13
2022-12-24T21:36:08.479Z,6.13
2022-12-24T21:38:36.326Z,6.15
2022-12-24T21:41:06.218Z,6.13
2022-12-24T21:43:35.419Z,6.15
2022-12-24T21:46:07.512Z,6.15
2022-12-24T21:48:52.696Z,6.09
2022-12-24T21:51:21.738Z,6.09
2022-12-24T21:54:21.361Z,6.08
2022-12-24T21:57:06.214Z,6.03
2022-12-24T21:59:33.858Z,6.04
2022-12-24T22:02:01.940Z,6.05
2022-12-24T22:04:31.445Z,6.05
2022-12-24T22:07:17.929Z,6.07
2022-12-24T22:10:03.203Z,6.07
2022-12-24T22:12:32.689Z,6.07
2022-12-24T22:15:00.707Z,6.08
2022-12-24T22:17:28.582Z,6.07
2022-12-24T22:19:56.506Z,6.06
2022-12-24T22:22:25.469Z,6.06
2022-12-24T22:24:53.096Z,6.02
2022-12-24T22:27:20.735Z,6.04
2022-12-24T22:29:48.299Z,6.02
2022-12-24T22:32:16.226Z,6.03
2022-12-24T22:34:43.754Z,6.04
2022-12-24T22:37:11.398Z,6.05
2022-12-24T22:39:40.314Z,6.06
2022-12-24T22:42:07.918Z,6.08
2022-12-24T22:44:36.261Z,6.07
2022-12-24T22:47:03.832Z,6.08
2022-12-24T22:49:31.584Z,6.07
2022-12-24T22:51:59.227Z,6.07
2022-12-24T22:54:26.999Z,6.06
2022-12-24T22:56:55.944Z,6.05
2022-12-24T22:59:23.551Z,6.04
2022-12-24T23:01:52.522Z,6.01
2022-12-24T23:04:20.614Z,5.99
2022-12-24T23:06:48.559Z,5.98
2022-12-24T23:09:17.485Z,5.98
2022-12-24T23:11:45.905Z,5.98
2022-12-24T23:14:35.470Z,6.00
2022-12-24T23:17:03.140Z,5.98
2022-12-24T23:19:33.379Z,6.00
2022-12-24T23:22:01.691Z,5.98
2022-12-24T23:24:29.966Z,5.94
2022-12-24T23:26:58.441Z,5.96
2022-12-24T23:29:27.384Z,5.97
2022-12-24T23:31:55.094Z,5.98
2022-12-24T23:34:22.660Z,5.97
2022-12-24T23:36:50.198Z,5.97
2022-12-24T23:39:17.847Z,5.96
2022-12-24T23:41:45.778Z,5.95
2022-12-24T23:44:13.358Z,5.97
2022-12-24T23:46:42.399Z,5.96
2022-12-24T23:49:13.787Z,5.97
2022-12-24T23:51:41.386Z,5.96
2022-12-24T23:54:09.094Z,5.98
2022-12-24T23:56:36.837Z,5.99
2022-12-24T23:59:04.842Z,6.00
